Terminal Aerodrome Forecast
Issued by NWS Jackson, MS

Home | Current Version | Previous Version | Text Only | Print | Product List | Glossary On
Versions: 1 2 3 4 5 6 7 8 9 10 11 12
000
FTUS44 KMEG 202329
TAFTUP
TAF
KTUP 202329Z 2100/2124 15007KT P6SM VCSH BKN050
     FM210400 16006KT P6SM BKN050
     FM211300 17008KT P6SM SCT015 BKN050
     FM211900 16010KT P6SM BKN045=

USA.gov is the U.S. government's official web portal to all federal, state and local government web resources and services.